sensor_id;sensor_type;location;lat;lon;timestamp;pressure;altitude;pressure_sealevel;temperature;humidity
63500;BME280;49654;51.142;14.924;2024-02-14T00:00:33;99638.97;;;2.62;77.29
63500;BME280;49654;51.142;14.924;2024-02-14T00:03:00;99494.69;;;1.67;77.62
63500;BME280;49654;51.142;14.924;2024-02-14T00:05:29;99594.13;;;2.33;78.45
63500;BME280;49654;51.142;14.924;2024-02-14T00:07:55;99595.66;;;2.35;78.32
63500;BME280;49654;51.142;14.924;2024-02-14T00:10:22;99639.72;;;2.75;77.95
63500;BME280;49654;51.142;14.924;2024-02-14T00:12:49;99636.94;;;2.90;77.59
63500;BME280;49654;51.142;14.924;2024-02-14T00:15:17;99633.81;;;2.97;77.27
63500;BME280;49654;51.142;14.924;2024-02-14T00:17:44;99565.78;;;2.69;76.47
63500;BME280;49654;51.142;14.924;2024-02-14T00:20:11;99584.34;;;2.84;76.43
63500;BME280;49654;51.142;14.924;2024-02-14T00:22:39;99589.38;;;2.97;75.48
63500;BME280;49654;51.142;14.924;2024-02-14T00:25:07;99641.53;;;3.31;75.68
63500;BME280;49654;51.142;14.924;2024-02-14T00:27:35;99647.94;;;3.37;75.77
63500;BME280;49654;51.142;14.924;2024-02-14T00:30:02;99646.78;;;3.30;75.31
63500;BME280;49654;51.142;14.924;2024-02-14T00:32:29;99643.03;;;3.11;75.80
63500;BME280;49654;51.142;14.924;2024-02-14T00:34:56;99638.94;;;2.97;76.32
63500;BME280;49654;51.142;14.924;2024-02-14T00:37:23;99623.69;;;2.96;76.84
63500;BME280;49654;51.142;14.924;2024-02-14T00:39:51;99555.66;;;2.68;76.81
63500;BME280;49654;51.142;14.924;2024-02-14T00:42:19;99629.06;;;3.26;76.18
63500;BME280;49654;51.142;14.924;2024-02-14T00:44:46;99634.66;;;3.32;75.56
63500;BME280;49654;51.142;14.924;2024-02-14T00:47:13;99611.78;;;3.29;75.42
63500;BME280;49654;51.142;14.924;2024-02-14T00:49:40;99638.16;;;3.42;75.01
63500;BME280;49654;51.142;14.924;2024-02-14T00:52:07;99629.53;;;3.43;75.22
63500;BME280;49654;51.142;14.924;2024-02-14T00:54:34;99629.06;;;3.49;74.59
63500;BME280;49654;51.142;14.924;2024-02-14T00:57:03;99619.25;;;3.43;74.39
63500;BME280;49654;51.142;14.924;2024-02-14T00:59:30;99635.34;;;3.56;74.96
63500;BME280;49654;51.142;14.924;2024-02-14T01:01:57;99530.28;;;2.87;75.05
63500;BME280;49654;51.142;14.924;2024-02-14T01:04:25;99564.88;;;3.15;74.93
63500;BME280;49654;51.142;14.924;2024-02-14T01:06:51;99630.56;;;3.51;75.00
63500;BME280;49654;51.142;14.924;2024-02-14T01:09:18;99620.03;;;3.55;75.13
63500;BME280;49654;51.142;14.924;2024-02-14T01:11:45;99619.81;;;3.58;74.79
63500;BME280;49654;51.142;14.924;2024-02-14T01:14:15;99595.91;;;3.46;74.70
63500;BME280;49654;51.142;14.924;2024-02-14T01:16:42;99622.25;;;3.59;74.41
63500;BME280;49654;51.142;14.924;2024-02-14T01:19:10;99605.56;;;3.65;74.07
63500;BME280;49654;51.142;14.924;2024-02-14T01:21:37;99475.91;;;2.82;73.67
63500;BME280;49654;51.142;14.924;2024-02-14T01:24:04;99609.50;;;3.80;73.11
63500;BME280;49654;51.142;14.924;2024-02-14T01:26:33;99621.00;;;3.65;74.13
63500;BME280;49654;51.142;14.924;2024-02-14T01:29:00;99601.34;;;3.75;73.92
63500;BME280;49654;51.142;14.924;2024-02-14T01:31:29;99614.41;;;3.94;73.20
63500;BME280;49654;51.142;14.924;2024-02-14T01:33:56;99618.66;;;4.05;73.01
63500;BME280;49654;51.142;14.924;2024-02-14T01:36:24;99612.03;;;4.03;72.64
63500;BME280;49654;51.142;14.924;2024-02-14T01:38:51;99604.22;;;3.93;72.95
63500;BME280;49654;51.142;14.924;2024-02-14T01:41:18;99594.50;;;3.96;72.56
63500;BME280;49654;51.142;14.924;2024-02-14T01:43:47;99568.97;;;3.95;71.90
63500;BME280;49654;51.142;14.924;2024-02-14T01:46:14;99599.91;;;4.25;71.44
63500;BME280;49654;51.142;14.924;2024-02-14T01:48:42;99597.38;;;4.14;71.55
63500;BME280;49654;51.142;14.924;2024-02-14T01:51:11;99617.19;;;4.23;71.79
63500;BME280;49654;51.142;14.924;2024-02-14T01:53:39;99551.41;;;4.00;71.43
63500;BME280;49654;51.142;14.924;2024-02-14T01:56:08;99593.03;;;4.47;70.06
63500;BME280;49654;51.142;14.924;2024-02-14T01:58:36;99555.81;;;4.09;70.11
63500;BME280;49654;51.142;14.924;2024-02-14T02:01:03;99583.97;;;4.32;70.37
63500;BME280;49654;51.142;14.924;2024-02-14T02:03:30;99610.84;;;4.39;70.61
63500;BME280;49654;51.142;14.924;2024-02-14T02:06:03;99526.19;;;3.94;70.29
63500;BME280;49654;51.142;14.924;2024-02-14T02:08:30;99608.84;;;4.63;69.75
63500;BME280;49654;51.142;14.924;2024-02-14T02:10:58;99609.47;;;4.56;70.00
63500;BME280;49654;51.142;14.924;2024-02-14T02:13:25;99564.91;;;4.13;70.39
63500;BME280;49654;51.142;14.924;2024-02-14T02:15:52;99607.31;;;4.40;70.53
63500;BME280;49654;51.142;14.924;2024-02-14T02:18:20;99622.81;;;4.29;70.60
63500;BME280;49654;51.142;14.924;2024-02-14T02:20:47;99622.09;;;4.26;70.52
63500;BME280;49654;51.142;14.924;2024-02-14T02:23:16;99622.34;;;4.23;71.06
63500;BME280;49654;51.142;14.924;2024-02-14T02:25:43;99609.84;;;4.19;71.32
63500;BME280;49654;51.142;14.924;2024-02-14T02:28:10;99578.97;;;3.98;71.38
63500;BME280;49654;51.142;14.924;2024-02-14T02:30:37;99589.06;;;3.90;72.10
63500;BME280;49654;51.142;14.924;2024-02-14T02:33:05;99617.63;;;4.08;72.31
63500;BME280;49654;51.142;14.924;2024-02-14T02:35:33;99608.59;;;4.13;72.16
63500;BME280;49654;51.142;14.924;2024-02-14T02:38:00;99613.88;;;4.12;72.24
63500;BME280;49654;51.142;14.924;2024-02-14T02:40:28;99619.00;;;4.12;72.31
63500;BME280;49654;51.142;14.924;2024-02-14T02:42:56;99620.28;;;4.06;72.32
63500;BME280;49654;51.142;14.924;2024-02-14T02:45:24;99595.78;;;4.02;71.86
63500;BME280;49654;51.142;14.924;2024-02-14T02:47:51;99616.09;;;4.05;71.93
63500;BME280;49654;51.142;14.924;2024-02-14T02:50:18;99616.31;;;4.13;72.03
63500;BME280;49654;51.142;14.924;2024-02-14T02:52:45;99583.44;;;3.85;72.24
63500;BME280;49654;51.142;14.924;2024-02-14T02:55:12;99621.22;;;4.16;71.95
63500;BME280;49654;51.142;14.924;2024-02-14T02:57:42;99612.97;;;4.34;71.61
63500;BME280;49654;51.142;14.924;2024-02-14T03:00:10;99610.13;;;4.37;71.45
63500;BME280;49654;51.142;14.924;2024-02-14T03:02:39;99596.56;;;4.14;72.05
63500;BME280;49654;51.142;14.924;2024-02-14T03:05:07;99596.31;;;4.17;72.07
63500;BME280;49654;51.142;14.924;2024-02-14T03:07:36;99588.47;;;4.18;72.00
63500;BME280;49654;51.142;14.924;2024-02-14T03:10:04;99598.41;;;4.44;71.28
63500;BME280;49654;51.142;14.924;2024-02-14T03:12:31;99616.47;;;4.53;71.19
63500;BME280;49654;51.142;14.924;2024-02-14T03:14:59;99572.47;;;4.47;70.76
63500;BME280;49654;51.142;14.924;2024-02-14T03:17:27;99498.88;;;3.93;70.62
63500;BME280;49654;51.142;14.924;2024-02-14T03:19:55;99602.13;;;4.72;70.98
63500;BME280;49654;51.142;14.924;2024-02-14T03:22:22;99605.13;;;4.77;71.10
63500;BME280;49654;51.142;14.924;2024-02-14T03:24:49;99584.22;;;4.70;71.01
63500;BME280;49654;51.142;14.924;2024-02-14T03:27:16;99608.97;;;4.83;70.86
63500;BME280;49654;51.142;14.924;2024-02-14T03:29:44;99576.47;;;4.61;71.02
63500;BME280;49654;51.142;14.924;2024-02-14T03:32:14;99569.75;;;4.69;71.02
63500;BME280;49654;51.142;14.924;2024-02-14T03:34:41;99582.84;;;4.87;70.92
63500;BME280;49654;51.142;14.924;2024-02-14T03:37:08;99512.88;;;4.42;70.63
63500;BME280;49654;51.142;14.924;2024-02-14T03:39:35;99595.22;;;4.93;70.42
63500;BME280;49654;51.142;14.924;2024-02-14T03:42:03;99592.13;;;4.99;69.69
63500;BME280;49654;51.142;14.924;2024-02-14T03:44:33;99580.41;;;4.86;69.71
63500;BME280;49654;51.142;14.924;2024-02-14T03:47:00;99590.44;;;4.89;70.15
63500;BME280;49654;51.142;14.924;2024-02-14T03:49:28;99597.69;;;5.05;69.85
63500;BME280;49654;51.142;14.924;2024-02-14T03:51:56;99602.38;;;4.90;70.04
63500;BME280;49654;51.142;14.924;2024-02-14T03:54:23;99603.25;;;4.79;70.26
63500;BME280;49654;51.142;14.924;2024-02-14T03:56:50;99599.44;;;4.73;70.27
63500;BME280;49654;51.142;14.924;2024-02-14T03:59:17;99599.63;;;4.61;71.03
63500;BME280;49654;51.142;14.924;2024-02-14T04:01:50;99599.06;;;4.57;71.77
63500;BME280;49654;51.142;14.924;2024-02-14T04:04:19;99606.91;;;4.56;71.66
63500;BME280;49654;51.142;14.924;2024-02-14T04:06:47;99594.03;;;4.35;72.76
63500;BME280;49654;51.142;14.924;2024-02-14T04:09:14;99507.63;;;3.69;72.90
63500;BME280;49654;51.142;14.924;2024-02-14T04:11:41;99594.19;;;4.22;72.51
63500;BME280;49654;51.142;14.924;2024-02-14T04:14:08;99600.97;;;4.23;72.75
63500;BME280;49654;51.142;14.924;2024-02-14T04:16:35;99576.22;;;4.11;73.26
63500;BME280;49654;51.142;14.924;2024-02-14T04:19:02;99596.63;;;4.23;73.41
63500;BME280;49654;51.142;14.924;2024-02-14T04:21:30;99587.38;;;4.11;73.73
63500;BME280;49654;51.142;14.924;2024-02-14T04:23:59;99585.47;;;4.13;73.82
63500;BME280;49654;51.142;14.924;2024-02-14T04:26:26;99580.25;;;4.04;74.01
63500;BME280;49654;51.142;14.924;2024-02-14T04:28:54;99581.28;;;4.12;73.68
63500;BME280;49654;51.142;14.924;2024-02-14T04:31:21;99574.84;;;4.07;73.89
63500;BME280;49654;51.142;14.924;2024-02-14T04:33:48;99572.41;;;4.05;73.97
63500;BME280;49654;51.142;14.924;2024-02-14T04:36:17;99576.81;;;4.14;73.84
63500;BME280;49654;51.142;14.924;2024-02-14T04:38:46;99573.94;;;4.08;73.34
63500;BME280;49654;51.142;14.924;2024-02-14T04:41:15;99566.09;;;4.09;73.63
63500;BME280;49654;51.142;14.924;2024-02-14T04:43:42;99525.16;;;3.53;74.01
63500;BME280;49654;51.142;14.924;2024-02-14T04:46:09;99508.13;;;3.52;74.71
63500;BME280;49654;51.142;14.924;2024-02-14T04:48:36;99575.00;;;3.94;74.23
63500;BME280;49654;51.142;14.924;2024-02-14T04:51:03;99574.34;;;3.92;74.83
63500;BME280;49654;51.142;14.924;2024-02-14T04:53:31;99570.72;;;3.83;75.74
63500;BME280;49654;51.142;14.924;2024-02-14T04:55:57;99569.22;;;3.81;75.66
63500;BME280;49654;51.142;14.924;2024-02-14T04:58:26;99488.78;;;3.37;75.63
63500;BME280;49654;51.142;14.924;2024-02-14T05:00:53;99527.59;;;3.66;75.69
63500;BME280;49654;51.142;14.924;2024-02-14T05:03:20;99559.69;;;4.04;75.30
63500;BME280;49654;51.142;14.924;2024-02-14T05:05:49;99562.38;;;4.02;75.29
63500;BME280;49654;51.142;14.924;2024-02-14T05:08:16;99525.00;;;3.98;75.05
63500;BME280;49654;51.142;14.924;2024-02-14T05:10:43;99516.91;;;3.82;75.31
63500;BME280;49654;51.142;14.924;2024-02-14T05:13:11;99545.03;;;3.94;75.46
63500;BME280;49654;51.142;14.924;2024-02-14T05:15:40;99522.97;;;3.81;75.44
63500;BME280;49654;51.142;14.924;2024-02-14T05:18:07;99569.97;;;4.04;75.39
63500;BME280;49654;51.142;14.924;2024-02-14T05:20:35;99533.00;;;3.84;75.64
63500;BME280;49654;51.142;14.924;2024-02-14T05:23:04;99555.97;;;3.96;75.95
63500;BME280;49654;51.142;14.924;2024-02-14T05:25:30;99555.84;;;3.98;75.85
63500;BME280;49654;51.142;14.924;2024-02-14T05:27:58;99515.03;;;3.84;75.75
63500;BME280;49654;51.142;14.924;2024-02-14T05:30:26;99522.06;;;3.82;75.40
63500;BME280;49654;51.142;14.924;2024-02-14T05:32:55;99565.88;;;4.01;76.14
63500;BME280;49654;51.142;14.924;2024-02-14T05:35:22;99567.50;;;4.02;76.06
63500;BME280;49654;51.142;14.924;2024-02-14T05:37:48;99557.22;;;4.02;76.35
63500;BME280;49654;51.142;14.924;2024-02-14T05:40:15;99566.22;;;4.08;75.98
63500;BME280;49654;51.142;14.924;2024-02-14T05:42:42;99566.13;;;3.98;76.32
63500;BME280;49654;51.142;14.924;2024-02-14T05:45:09;99502.72;;;3.66;76.20
63500;BME280;49654;51.142;14.924;2024-02-14T05:47:36;99550.34;;;4.03;76.13
63500;BME280;49654;51.142;14.924;2024-02-14T05:50:06;99541.88;;;3.91;76.29
63500;BME280;49654;51.142;14.924;2024-02-14T05:52:34;99535.09;;;3.90;76.24
63500;BME280;49654;51.142;14.924;2024-02-14T05:55:01;99554.28;;;4.07;76.16
63500;BME280;49654;51.142;14.924;2024-02-14T05:57:29;99553.09;;;4.11;76.01
63500;BME280;49654;51.142;14.924;2024-02-14T05:59:56;99416.59;;;3.30;75.73
63500;BME280;49654;51.142;14.924;2024-02-14T06:02:22;99551.84;;;4.05;76.18
63500;BME280;49654;51.142;14.924;2024-02-14T06:04:49;99557.88;;;4.15;75.58
63500;BME280;49654;51.142;14.924;2024-02-14T06:07:18;99566.25;;;4.29;75.62
63500;BME280;49654;51.142;14.924;2024-02-14T06:09:44;99561.94;;;4.50;74.44
63500;BME280;49654;51.142;14.924;2024-02-14T06:12:12;99549.06;;;4.50;73.97
63500;BME280;49654;51.142;14.924;2024-02-14T06:14:39;99570.28;;;4.63;74.02
63500;BME280;49654;51.142;14.924;2024-02-14T06:17:05;99571.13;;;4.73;72.95
63500;BME280;49654;51.142;14.924;2024-02-14T06:19:32;99576.25;;;4.94;72.72
63500;BME280;49654;51.142;14.924;2024-02-14T06:22:00;99426.34;;;4.10;72.39
63500;BME280;49654;51.142;14.924;2024-02-14T06:24:29;99573.03;;;5.02;72.29
63500;BME280;49654;51.142;14.924;2024-02-14T06:26:55;99550.66;;;4.93;72.26
63500;BME280;49654;51.142;14.924;2024-02-14T06:29:22;99559.94;;;5.15;71.91
63500;BME280;49654;51.142;14.924;2024-02-14T06:31:49;99565.22;;;5.13;71.92
63500;BME280;49654;51.142;14.924;2024-02-14T06:34:16;99569.59;;;5.22;71.70
63500;BME280;49654;51.142;14.924;2024-02-14T06:36:44;99560.38;;;4.89;72.43
63500;BME280;49654;51.142;14.924;2024-02-14T06:39:11;99565.50;;;5.10;72.51
63500;BME280;49654;51.142;14.924;2024-02-14T06:41:39;99565.44;;;5.00;72.72
63500;BME280;49654;51.142;14.924;2024-02-14T06:44:06;99562.56;;;4.94;72.95
63500;BME280;49654;51.142;14.924;2024-02-14T06:46:33;99566.34;;;4.90;72.94
63500;BME280;49654;51.142;14.924;2024-02-14T06:49:03;99570.41;;;4.92;73.55
63500;BME280;49654;51.142;14.924;2024-02-14T06:51:30;99548.75;;;4.95;73.04
63500;BME280;49654;51.142;14.924;2024-02-14T06:53:57;99566.00;;;5.04;72.79
63500;BME280;49654;51.142;14.924;2024-02-14T06:56:24;99566.41;;;5.09;72.66
63500;BME280;49654;51.142;14.924;2024-02-14T06:58:52;99522.34;;;4.93;72.21
63500;BME280;49654;51.142;14.924;2024-02-14T07:01:25;99523.00;;;4.95;72.50
63500;BME280;49654;51.142;14.924;2024-02-14T07:03:52;99570.34;;;5.13;72.40
63500;BME280;49654;51.142;14.924;2024-02-14T07:06:19;99577.97;;;5.15;72.42
63500;BME280;49654;51.142;14.924;2024-02-14T07:08:46;99571.22;;;5.23;72.46
63500;BME280;49654;51.142;14.924;2024-02-14T07:11:14;99577.06;;;5.35;72.37
63500;BME280;49654;51.142;14.924;2024-02-14T07:13:42;99560.13;;;5.23;72.28
63500;BME280;49654;51.142;14.924;2024-02-14T07:16:10;99574.56;;;5.45;71.50
63500;BME280;49654;51.142;14.924;2024-02-14T07:18:37;99537.97;;;5.11;72.13
63500;BME280;49654;51.142;14.924;2024-02-14T07:21:04;99514.72;;;4.91;72.38
63500;BME280;49654;51.142;14.924;2024-02-14T07:23:32;99569.22;;;5.37;72.32
63500;BME280;49654;51.142;14.924;2024-02-14T07:25:59;99581.53;;;5.23;72.44
63500;BME280;49654;51.142;14.924;2024-02-14T07:28:27;99575.59;;;5.33;72.31
63500;BME280;49654;51.142;14.924;2024-02-14T07:30:54;99571.28;;;5.43;71.92
63500;BME280;49654;51.142;14.924;2024-02-14T07:33:22;99568.03;;;5.50;71.92
63500;BME280;49654;51.142;14.924;2024-02-14T07:35:49;99512.25;;;5.11;72.18
63500;BME280;49654;51.142;14.924;2024-02-14T07:38:16;99568.59;;;5.44;71.60
63500;BME280;49654;51.142;14.924;2024-02-14T07:40:43;99548.66;;;5.46;71.23
63500;BME280;49654;51.142;14.924;2024-02-14T07:43:10;99571.91;;;5.75;70.78
63500;BME280;49654;51.142;14.924;2024-02-14T07:45:37;99571.09;;;5.85;70.71
63500;BME280;49654;51.142;14.924;2024-02-14T07:48:05;99566.50;;;5.78;70.45
63500;BME280;49654;51.142;14.924;2024-02-14T07:50:34;99527.13;;;5.76;70.08
63500;BME280;49654;51.142;14.924;2024-02-14T07:53:03;99566.34;;;5.80;70.54
63500;BME280;49654;51.142;14.924;2024-02-14T07:55:29;99569.91;;;5.98;70.63
63500;BME280;49654;51.142;14.924;2024-02-14T07:57:56;99568.81;;;5.91;70.64
63500;BME280;49654;51.142;14.924;2024-02-14T08:00:25;99569.22;;;5.87;70.42
63500;BME280;49654;51.142;14.924;2024-02-14T08:02:52;99571.50;;;5.90;70.16
63500;BME280;49654;51.142;14.924;2024-02-14T08:05:19;99573.00;;;5.83;70.86
63500;BME280;49654;51.142;14.924;2024-02-14T08:07:47;99527.69;;;5.70;70.35
63500;BME280;49654;51.142;14.924;2024-02-14T08:10:14;99567.88;;;6.12;69.86
63500;BME280;49654;51.142;14.924;2024-02-14T08:12:41;99566.50;;;6.37;69.30
63500;BME280;49654;51.142;14.924;2024-02-14T08:15:09;99557.16;;;6.26;69.51
63500;BME280;49654;51.142;14.924;2024-02-14T08:17:36;99542.38;;;6.18;69.09
63500;BME280;49654;51.142;14.924;2024-02-14T08:20:03;99551.31;;;6.24;69.14
63500;BME280;49654;51.142;14.924;2024-02-14T08:22:31;99552.06;;;6.63;68.51
63500;BME280;49654;51.142;14.924;2024-02-14T08:24:59;99544.63;;;6.60;68.36
63500;BME280;49654;51.142;14.924;2024-02-14T08:27:26;99547.13;;;6.80;68.57
63500;BME280;49654;51.142;14.924;2024-02-14T08:29:53;99552.03;;;6.83;67.36
63500;BME280;49654;51.142;14.924;2024-02-14T08:32:21;99550.22;;;6.93;67.49
63500;BME280;49654;51.142;14.924;2024-02-14T08:34:48;99546.44;;;6.87;67.50
63500;BME280;49654;51.142;14.924;2024-02-14T08:37:16;99549.28;;;7.21;66.88
63500;BME280;49654;51.142;14.924;2024-02-14T08:39:43;99510.44;;;6.86;66.45
63500;BME280;49654;51.142;14.924;2024-02-14T08:42:11;99508.88;;;7.02;66.10
63500;BME280;49654;51.142;14.924;2024-02-14T08:44:38;99496.53;;;7.24;66.59
63500;BME280;49654;51.142;14.924;2024-02-14T08:47:06;99523.50;;;7.57;65.10
63500;BME280;49654;51.142;14.924;2024-02-14T08:49:33;99520.63;;;8.32;63.13
63500;BME280;49654;51.142;14.924;2024-02-14T08:52:00;99520.13;;;9.22;60.69
63500;BME280;49654;51.142;14.924;2024-02-14T08:54:27;99510.00;;;9.45;59.67
63500;BME280;49654;51.142;14.924;2024-02-14T08:56:54;99509.75;;;9.81;57.91
63500;BME280;49654;51.142;14.924;2024-02-14T08:59:25;99507.97;;;9.90;57.47
63500;BME280;49654;51.142;14.924;2024-02-14T09:01:53;99509.09;;;9.12;58.79
63500;BME280;49654;51.142;14.924;2024-02-14T09:04:20;99438.69;;;8.74;58.75
63500;BME280;49654;51.142;14.924;2024-02-14T09:06:46;99499.72;;;9.19;58.34
63500;BME280;49654;51.142;14.924;2024-02-14T09:09:13;99496.28;;;9.11;59.85
63500;BME280;49654;51.142;14.924;2024-02-14T09:11:41;99498.66;;;8.96;60.38
63500;BME280;49654;51.142;14.924;2024-02-14T09:14:08;99499.66;;;9.03;59.89
63500;BME280;49654;51.142;14.924;2024-02-14T09:16:37;99494.81;;;9.00;60.10
63500;BME280;49654;51.142;14.924;2024-02-14T09:19:04;99495.41;;;8.94;61.01
63500;BME280;49654;51.142;14.924;2024-02-14T09:21:33;99500.34;;;8.71;60.77
63500;BME280;49654;51.142;14.924;2024-02-14T09:24:01;99496.59;;;8.65;60.43
63500;BME280;49654;51.142;14.924;2024-02-14T09:26:28;99495.31;;;8.43;62.36
63500;BME280;49654;51.142;14.924;2024-02-14T09:28:55;99444.97;;;8.38;61.32
63500;BME280;49654;51.142;14.924;2024-02-14T09:31:22;99436.25;;;8.39;61.46
63500;BME280;49654;51.142;14.924;2024-02-14T09:33:51;99498.00;;;8.94;61.11
63500;BME280;49654;51.142;14.924;2024-02-14T09:36:22;99491.84;;;8.87;61.29
63500;BME280;49654;51.142;14.924;2024-02-14T09:38:50;99459.66;;;8.63;61.62
63500;BME280;49654;51.142;14.924;2024-02-14T09:41:22;99478.09;;;8.60;61.49
63500;BME280;49654;51.142;14.924;2024-02-14T09:43:49;99482.38;;;8.69;61.38
63500;BME280;49654;51.142;14.924;2024-02-14T09:46:16;99458.75;;;8.20;62.30
63500;BME280;49654;51.142;14.924;2024-02-14T09:48:43;99481.94;;;8.56;61.97
63500;BME280;49654;51.142;14.924;2024-02-14T09:51:12;99484.94;;;8.43;61.58
63500;BME280;49654;51.142;14.924;2024-02-14T09:53:39;99464.16;;;8.27;62.61
63500;BME280;49654;51.142;14.924;2024-02-14T09:56:09;99494.44;;;8.87;62.00
63500;BME280;49654;51.142;14.924;2024-02-14T09:58:36;99487.09;;;8.48;62.35
63500;BME280;49654;51.142;14.924;2024-02-14T10:01:04;99484.88;;;8.53;62.16
63500;BME280;49654;51.142;14.924;2024-02-14T10:03:32;99473.06;;;8.33;62.73
63500;BME280;49654;51.142;14.924;2024-02-14T10:05:59;99490.00;;;8.45;63.29
63500;BME280;49654;51.142;14.924;2024-02-14T10:08:28;99477.09;;;8.53;62.31
63500;BME280;49654;51.142;14.924;2024-02-14T10:10:56;99481.19;;;8.64;62.32
63500;BME280;49654;51.142;14.924;2024-02-14T10:13:26;99487.81;;;8.58;62.89
63500;BME280;49654;51.142;14.924;2024-02-14T10:15:53;99450.34;;;8.18;62.51
63500;BME280;49654;51.142;14.924;2024-02-14T10:18:20;99494.81;;;8.66;62.02
63500;BME280;49654;51.142;14.924;2024-02-14T10:20:53;99417.31;;;8.12;62.06
63500;BME280;49654;51.142;14.924;2024-02-14T10:23:20;99492.78;;;8.51;62.95
63500;BME280;49654;51.142;14.924;2024-02-14T10:25:49;99493.22;;;8.47;63.32
63500;BME280;49654;51.142;14.924;2024-02-14T10:28:16;99494.41;;;8.35;62.96
63500;BME280;49654;51.142;14.924;2024-02-14T10:30:45;99455.56;;;8.26;62.92
63500;BME280;49654;51.142;14.924;2024-02-14T10:33:13;99471.28;;;8.33;63.75
63500;BME280;49654;51.142;14.924;2024-02-14T10:35:41;99480.00;;;8.50;63.59
63500;BME280;49654;51.142;14.924;2024-02-14T10:38:09;99483.03;;;8.45;63.57
63500;BME280;49654;51.142;14.924;2024-02-14T10:40:36;99474.84;;;8.32;63.75
63500;BME280;49654;51.142;14.924;2024-02-14T10:43:07;99394.22;;;7.49;64.57
63500;BME280;49654;51.142;14.924;2024-02-14T10:45:35;99485.38;;;8.13;64.30
63500;BME280;49654;51.142;14.924;2024-02-14T10:48:04;99479.22;;;8.32;64.43
63500;BME280;49654;51.142;14.924;2024-02-14T10:50:32;99483.91;;;8.10;66.18
63500;BME280;49654;51.142;14.924;2024-02-14T10:53:04;99483.41;;;8.07;66.79
63500;BME280;49654;51.142;14.924;2024-02-14T10:55:33;99397.56;;;7.41;67.29
63500;BME280;49654;51.142;14.924;2024-02-14T10:58:01;99471.88;;;8.01;67.22
63500;BME280;49654;51.142;14.924;2024-02-14T11:00:30;99464.59;;;8.22;66.55
63500;BME280;49654;51.142;14.924;2024-02-14T11:02:58;99465.81;;;8.36;66.26
63500;BME280;49654;51.142;14.924;2024-02-14T11:05:26;99470.69;;;8.39;66.02
63500;BME280;49654;51.142;14.924;2024-02-14T11:07:53;99447.69;;;8.10;66.98
63500;BME280;49654;51.142;14.924;2024-02-14T11:10:21;99470.25;;;8.00;67.19
63500;BME280;49654;51.142;14.924;2024-02-14T11:12:49;99457.25;;;8.10;67.64
63500;BME280;49654;51.142;14.924;2024-02-14T11:15:18;99460.34;;;8.39;66.78
63500;BME280;49654;51.142;14.924;2024-02-14T11:17:48;99464.06;;;8.37;66.79
63500;BME280;49654;51.142;14.924;2024-02-14T11:20:18;99433.59;;;8.04;67.48
63500;BME280;49654;51.142;14.924;2024-02-14T11:22:55;99458.97;;;8.27;67.77
63500;BME280;49654;51.142;14.924;2024-02-14T11:25:27;99379.66;;;7.66;67.72
63500;BME280;49654;51.142;14.924;2024-02-14T11:27:55;99456.38;;;8.27;67.16
63500;BME280;49654;51.142;14.924;2024-02-14T11:30:30;99453.00;;;8.26;67.10
63500;BME280;49654;51.142;14.924;2024-02-14T11:33:13;99453.78;;;8.27;67.64
63500;BME280;49654;51.142;14.924;2024-02-14T11:35:40;99446.28;;;8.42;66.96
63500;BME280;49654;51.142;14.924;2024-02-14T11:38:08;99298.13;;;7.45;68.23
63500;BME280;49654;51.142;14.924;2024-02-14T11:40:35;99424.88;;;8.32;68.86
63500;BME280;49654;51.142;14.924;2024-02-14T11:43:04;99421.16;;;8.08;69.98
63500;BME280;49654;51.142;14.924;2024-02-14T11:45:31;99445.25;;;8.35;68.37
63500;BME280;49654;51.142;14.924;2024-02-14T11:47:58;99423.31;;;8.39;68.76
63500;BME280;49654;51.142;14.924;2024-02-14T11:50:26;99418.88;;;8.57;67.13
63500;BME280;49654;51.142;14.924;2024-02-14T11:52:54;99445.41;;;9.01;65.61
63500;BME280;49654;51.142;14.924;2024-02-14T11:55:27;99420.13;;;8.87;65.98
63500;BME280;49654;51.142;14.924;2024-02-14T11:57:54;99454.31;;;8.99;65.86
63500;BME280;49654;51.142;14.924;2024-02-14T12:00:22;99455.91;;;8.92;66.23
63500;BME280;49654;51.142;14.924;2024-02-14T12:02:50;99445.16;;;9.21;66.17
63500;BME280;49654;51.142;14.924;2024-02-14T12:05:17;99456.81;;;9.33;65.51
63500;BME280;49654;51.142;14.924;2024-02-14T12:07:46;99296.44;;;8.31;65.54
63500;BME280;49654;51.142;14.924;2024-02-14T12:10:14;99425.78;;;8.83;66.92
63500;BME280;49654;51.142;14.924;2024-02-14T12:12:45;99441.09;;;9.18;65.71
63500;BME280;49654;51.142;14.924;2024-02-14T12:15:12;99421.50;;;9.16;66.56
63500;BME280;49654;51.142;14.924;2024-02-14T12:17:41;99369.50;;;9.01;65.91
63500;BME280;49654;51.142;14.924;2024-02-14T12:20:09;99402.88;;;9.04;65.92
63500;BME280;49654;51.142;14.924;2024-02-14T12:22:38;99328.75;;;8.61;65.82
63500;BME280;49654;51.142;14.924;2024-02-14T12:25:08;99278.81;;;8.26;65.55
63500;BME280;49654;51.142;14.924;2024-02-14T12:27:37;99435.09;;;9.18;65.42
63500;BME280;49654;51.142;14.924;2024-02-14T12:30:04;99435.94;;;9.26;65.59
63500;BME280;49654;51.142;14.924;2024-02-14T12:32:31;99423.28;;;9.23;65.87
63500;BME280;49654;51.142;14.924;2024-02-14T12:34:58;99385.34;;;8.98;66.24
63500;BME280;49654;51.142;14.924;2024-02-14T12:37:26;99419.25;;;9.45;65.28
63500;BME280;49654;51.142;14.924;2024-02-14T12:39:53;99428.53;;;9.56;65.11
63500;BME280;49654;51.142;14.924;2024-02-14T12:42:22;99431.75;;;9.83;64.42
63500;BME280;49654;51.142;14.924;2024-02-14T12:44:52;99429.97;;;9.83;63.78
63500;BME280;49654;51.142;14.924;2024-02-14T12:47:19;99430.94;;;10.07;63.68
63500;BME280;49654;51.142;14.924;2024-02-14T12:49:48;99410.81;;;10.00;63.32
63500;BME280;49654;51.142;14.924;2024-02-14T12:52:15;99440.47;;;10.14;63.11
63500;BME280;49654;51.142;14.924;2024-02-14T12:54:43;99424.47;;;9.86;63.30
63500;BME280;49654;51.142;14.924;2024-02-14T12:57:10;99423.63;;;10.02;63.64
63500;BME280;49654;51.142;14.924;2024-02-14T12:59:38;99430.59;;;9.44;66.77
63500;BME280;49654;51.142;14.924;2024-02-14T13:02:05;99315.88;;;8.85;66.62